createdAt,value
2017-08-26T00:00:16.205Z,18.1
2017-08-26T00:01:23.996Z,18.2
2017-08-26T00:02:31.481Z,18.2
2017-08-26T00:03:38.963Z,18.2
2017-08-26T00:04:46.113Z,18.2
2017-08-26T00:05:53.260Z,18.3
2017-08-26T00:07:01.101Z,18.3
2017-08-26T00:08:08.582Z,18.3
2017-08-26T00:09:16.059Z,18.3
2017-08-26T00:10:23.551Z,18.3
2017-08-26T00:11:31.036Z,18.2
2017-08-26T00:12:38.483Z,18.1
2017-08-26T00:13:45.985Z,18.1
2017-08-26T00:14:53.469Z,18.1
2017-08-26T00:16:00.947Z,18
2017-08-26T00:17:08.432Z,18
2017-08-26T00:18:16.208Z,18
2017-08-26T00:19:23.692Z,18
2017-08-26T00:20:31.174Z,18
2017-08-26T00:21:38.654Z,18
2017-08-26T00:22:45.804Z,17.9
2017-08-26T00:23:53.636Z,17.9
2017-08-26T00:25:01.125Z,18
2017-08-26T00:26:08.615Z,18
2017-08-26T00:27:16.093Z,18
2017-08-26T00:28:23.241Z,17.9
2017-08-26T00:29:31.073Z,17.9
2017-08-26T00:30:38.556Z,17.9
2017-08-26T00:31:46.033Z,17.9
2017-08-26T00:32:53.515Z,17.9
2017-08-26T00:34:01.003Z,17.9
2017-08-26T00:35:08.786Z,17.9
2017-08-26T00:36:16.270Z,17.8
2017-08-26T00:37:23.763Z,17.8
2017-08-26T00:38:31.249Z,17.7
2017-08-26T00:39:38.734Z,17.7
2017-08-26T00:40:46.515Z,17.7
2017-08-26T00:41:54.003Z,17.7
2017-08-26T00:43:01.491Z,17.7
2017-08-26T00:44:08.639Z,17.8
2017-08-26T00:45:16.123Z,17.7
2017-08-26T00:46:23.959Z,17.7
2017-08-26T00:47:31.109Z,17.7
2017-08-26T00:48:38.589Z,17.7
2017-08-26T00:49:46.068Z,17.7
2017-08-26T00:50:53.223Z,17.7
2017-08-26T00:52:01.054Z,17.8
2017-08-26T00:53:08.533Z,17.7
2017-08-26T00:54:16.016Z,17.7
2017-08-26T00:55:23.496Z,17.6
2017-08-26T00:56:30.972Z,17.6
2017-08-26T00:57:38.808Z,17.6
2017-08-26T00:58:46.285Z,17.6
2017-08-26T00:59:53.436Z,17.6
2017-08-26T01:01:00.909Z,17.6
2017-08-26T01:02:08.390Z,17.6
2017-08-26T01:03:16.223Z,17.6
2017-08-26T01:04:23.706Z,17.6
2017-08-26T01:05:31.183Z,17.5
2017-08-26T01:06:38.665Z,17.5
2017-08-26T01:07:46.147Z,17.5
2017-08-26T01:08:53.931Z,17.5
2017-08-26T01:10:01.085Z,17.5
2017-08-26T01:11:08.562Z,17.4
2017-08-26T01:12:16.045Z,17.4
2017-08-26T01:13:23.525Z,17.4
2017-08-26T01:14:31.020Z,17.4
2017-08-26T01:15:37.825Z,17.4
2017-08-26T01:16:45.305Z,17.3
2017-08-26T01:17:52.796Z,17.4
2017-08-26T01:19:00.273Z,17.3
2017-08-26T01:20:07.391Z,17.3
2017-08-26T01:21:14.877Z,17.3
2017-08-26T01:22:22.361Z,17.3
2017-08-26T01:23:29.843Z,17.4
2017-08-26T01:24:37.328Z,17.4
2017-08-26T01:25:45.156Z,17.4
2017-08-26T01:26:52.303Z,17.5
2017-08-26T01:27:59.788Z,17.5
2017-08-26T01:29:07.270Z,17.5
2017-08-26T01:30:14.753Z,17.5
2017-08-26T01:31:22.656Z,17.5
2017-08-26T01:32:30.141Z,17.6
2017-08-26T01:33:37.622Z,17.6
2017-08-26T01:34:45.104Z,17.6
2017-08-26T01:35:52.585Z,17.6
2017-08-26T01:37:00.418Z,17.6
2017-08-26T01:38:07.899Z,17.6
2017-08-26T01:39:15.389Z,17.6
2017-08-26T01:40:22.871Z,17.6
2017-08-26T01:41:30.349Z,17.6
2017-08-26T01:42:38.132Z,17.6
2017-08-26T01:43:45.607Z,17.5
2017-08-26T01:44:53.089Z,17.5
2017-08-26T01:46:00.571Z,17.5
2017-08-26T01:47:08.051Z,17.5
2017-08-26T01:48:15.499Z,17.4
2017-08-26T01:49:23.004Z,17.4
2017-08-26T01:50:30.482Z,17.4
2017-08-26T01:51:37.967Z,17.4
2017-08-26T01:52:45.448Z,17.4
2017-08-26T01:53:53.222Z,17.4
2017-08-26T01:55:00.706Z,17.4
2017-08-26T01:56:08.186Z,17.4
2017-08-26T01:57:15.669Z,17.4
2017-08-26T01:58:23.148Z,17.4
2017-08-26T01:59:30.981Z,17.5
2017-08-26T02:00:38.461Z,17.5
2017-08-26T02:01:45.942Z,17.5
2017-08-26T02:02:53.426Z,17.5
2017-08-26T02:04:00.907Z,17.5
2017-08-26T02:05:08.737Z,17.5
2017-08-26T02:06:16.223Z,17.5
2017-08-26T02:07:23.708Z,17.5
2017-08-26T02:08:31.193Z,17.5
2017-08-26T02:09:38.672Z,17.5
2017-08-26T02:10:46.500Z,17.4
2017-08-26T02:11:53.654Z,17.4
2017-08-26T02:13:01.138Z,17.4
2017-08-26T02:14:08.621Z,17.5
2017-08-26T02:15:16.106Z,17.5
2017-08-26T02:16:23.936Z,17.5
2017-08-26T02:17:31.417Z,17.5
2017-08-26T02:18:38.906Z,17.5
2017-08-26T02:19:46.390Z,17.6
2017-08-26T02:20:53.538Z,17.6
2017-08-26T02:22:01.047Z,17.6
2017-08-26T02:23:08.530Z,17.6
2017-08-26T02:24:16.007Z,17.6
2017-08-26T02:25:23.493Z,17.6
2017-08-26T02:26:30.971Z,17.6
2017-08-26T02:27:38.467Z,17.6
2017-08-26T02:28:45.946Z,17.5
2017-08-26T02:29:53.424Z,17.5
2017-08-26T02:31:00.909Z,17.5
2017-08-26T02:32:08.397Z,17.5
2017-08-26T02:33:16.291Z,17.5
2017-08-26T02:34:23.439Z,17.5
2017-08-26T02:35:30.921Z,17.5
2017-08-26T02:36:38.410Z,17.5
2017-08-26T02:37:45.908Z,17.5
2017-08-26T02:38:53.694Z,17.5
2017-08-26T02:40:01.185Z,17.5
2017-08-26T02:41:08.659Z,17.5
2017-08-26T02:42:15.804Z,17.5
2017-08-26T02:43:23.285Z,17.5
2017-08-26T02:44:31.074Z,17.5
2017-08-26T02:45:38.551Z,17.5
2017-08-26T02:46:46.032Z,17.5
2017-08-26T02:47:53.517Z,17.5
2017-08-26T02:49:00.663Z,17.5
2017-08-26T02:50:08.124Z,17.5
2017-08-26T02:51:15.596Z,17.5
2017-08-26T02:52:22.743Z,17.5
2017-08-26T02:53:30.222Z,17.5
2017-08-26T02:54:37.368Z,17.4
2017-08-26T02:55:45.156Z,17.4
2017-08-26T02:56:52.640Z,17.4
2017-08-26T02:57:59.789Z,17.4
2017-08-26T02:59:06.936Z,17.4
2017-08-26T03:00:14.076Z,17.4
2017-08-26T03:01:21.858Z,17.4
2017-08-26T03:02:29.340Z,17.4
2017-08-26T03:03:36.829Z,17.4
2017-08-26T03:04:44.319Z,17.3
2017-08-26T03:05:51.805Z,17.3
2017-08-26T03:06:59.584Z,17.3
2017-08-26T03:08:07.060Z,17.2
2017-08-26T03:09:14.538Z,17.2
2017-08-26T03:10:22.029Z,17.2
2017-08-26T03:11:29.512Z,17.2
2017-08-26T03:12:37.291Z,17.2
2017-08-26T03:13:44.789Z,17.2
2017-08-26T03:14:52.267Z,17.2
2017-08-26T03:15:59.779Z,17.3
2017-08-26T03:17:06.916Z,17.3
2017-08-26T03:18:14.365Z,17.3
2017-08-26T03:19:21.846Z,17.2
2017-08-26T03:20:29.330Z,17.1
2017-08-26T03:21:36.477Z,17.1
2017-08-26T03:22:43.960Z,17.1
2017-08-26T03:23:51.745Z,17.1
2017-08-26T03:24:59.225Z,17.1
2017-08-26T03:26:06.710Z,17.1
2017-08-26T03:27:14.189Z,17.1
2017-08-26T03:28:21.674Z,17.1
2017-08-26T03:29:29.456Z,17.1
2017-08-26T03:30:36.941Z,17
2017-08-26T03:31:44.463Z,17
2017-08-26T03:32:51.953Z,17
2017-08-26T03:33:59.442Z,17
2017-08-26T03:35:07.223Z,16.9
2017-08-26T03:36:14.706Z,16.8
2017-08-26T03:37:22.181Z,16.7
2017-08-26T03:38:29.328Z,16.7
2017-08-26T03:39:36.808Z,16.6
2017-08-26T03:40:44.291Z,16.7
2017-08-26T03:41:51.099Z,16.7
2017-08-26T03:42:58.584Z,16.7
2017-08-26T03:44:06.068Z,16.7
2017-08-26T03:45:13.856Z,16.8
2017-08-26T03:46:21.363Z,16.8
2017-08-26T03:47:28.858Z,16.8
2017-08-26T03:48:36.008Z,16.8
2017-08-26T03:49:43.485Z,16.8
2017-08-26T03:50:51.267Z,16.8
2017-08-26T03:51:58.440Z,16.8
2017-08-26T03:53:05.924Z,16.8
2017-08-26T03:54:13.073Z,16.8
2017-08-26T03:55:20.557Z,16.7
2017-08-26T03:56:28.336Z,16.7
2017-08-26T03:57:35.825Z,16.7
2017-08-26T03:58:43.303Z,16.7
2017-08-26T03:59:50.785Z,16.7
2017-08-26T04:00:58.268Z,16.7
2017-08-26T04:02:06.048Z,16.7
2017-08-26T04:03:13.531Z,16.7
2017-08-26T04:04:21.020Z,16.7
2017-08-26T04:05:28.169Z,16.7
2017-08-26T04:06:35.658Z,16.7
2017-08-26T04:07:43.140Z,16.7
2017-08-26T04:08:50.618Z,16.7
2017-08-26T04:09:58.103Z,16.7
2017-08-26T04:11:05.253Z,16.7
2017-08-26T04:12:12.739Z,16.7
2017-08-26T04:13:20.190Z,16.6
2017-08-26T04:14:27.668Z,16.6
2017-08-26T04:15:35.147Z,16.6
2017-08-26T04:16:42.312Z,16.6
2017-08-26T04:17:50.092Z,16.6
2017-08-26T04:18:57.571Z,16.6
2017-08-26T04:20:05.050Z,16.6
2017-08-26T04:21:12.530Z,16.6
2017-08-26T04:22:20.011Z,16.5
2017-08-26T04:23:27.798Z,16.6
2017-08-26T04:24:34.949Z,16.6
2017-08-26T04:25:42.099Z,16.6
2017-08-26T04:26:49.579Z,16.6
2017-08-26T04:27:56.732Z,16.6
2017-08-26T04:29:04.508Z,16.5
2017-08-26T04:30:11.988Z,16.5
2017-08-26T04:31:19.474Z,16.5
2017-08-26T04:32:26.953Z,16.5
2017-08-26T04:33:34.446Z,16.5
2017-08-26T04:34:42.239Z,16.5
2017-08-26T04:35:49.718Z,16.4
2017-08-26T04:36:57.200Z,16.4
2017-08-26T04:38:04.679Z,16.4
2017-08-26T04:39:11.834Z,16.4
2017-08-26T04:40:19.613Z,16.4
2017-08-26T04:41:27.089Z,16.4
2017-08-26T04:42:34.566Z,16.5
2017-08-26T04:43:42.045Z,16.4
2017-08-26T04:44:49.534Z,16.4
2017-08-26T04:45:57.020Z,16.5
2017-08-26T04:47:04.798Z,16.5
2017-08-26T04:48:26.861Z,16.5
2017-08-26T04:49:34.342Z,16.5
2017-08-26T04:50:41.826Z,16.5
2017-08-26T04:51:49.309Z,16.5
2017-08-26T04:52:57.084Z,16.5
2017-08-26T04:54:04.564Z,16.6
2017-08-26T04:55:12.045Z,16.6
2017-08-26T04:56:19.524Z,16.6
2017-08-26T04:57:27.003Z,16.6
2017-08-26T04:58:34.837Z,16.6
2017-08-26T04:59:42.315Z,16.7
2017-08-26T05:00:49.796Z,16.7
2017-08-26T05:01:57.276Z,16.7
2017-08-26T05:03:04.759Z,16.6
2017-08-26T05:04:12.238Z,16.6
2017-08-26T05:05:19.722Z,16.6
2017-08-26T05:06:27.200Z,16.6
2017-08-26T05:07:34.676Z,16.6
2017-08-26T05:08:42.161Z,16.6
2017-08-26T05:09:49.948Z,16.6
2017-08-26T05:10:57.094Z,16.7
2017-08-26T05:12:04.246Z,16.7
2017-08-26T05:13:11.397Z,16.8
2017-08-26T05:14:18.539Z,16.8
2017-08-26T05:15:26.270Z,16.8
2017-08-26T05:16:33.758Z,16.8
2017-08-26T05:17:41.256Z,16.9
2017-08-26T05:18:48.389Z,16.9
2017-08-26T05:19:55.544Z,16.9
2017-08-26T05:21:03.379Z,17
2017-08-26T05:22:10.858Z,16.9
2017-08-26T05:23:18.017Z,17
2017-08-26T05:24:25.152Z,17
2017-08-26T05:25:32.647Z,17
2017-08-26T05:26:40.478Z,16.9
2017-08-26T05:27:47.960Z,16.9
2017-08-26T05:28:55.129Z,16.9
2017-08-26T05:30:02.605Z,17
2017-08-26T05:31:10.086Z,16.9
2017-08-26T05:32:17.926Z,16.9
2017-08-26T05:33:25.407Z,17
2017-08-26T05:34:32.890Z,17.1
2017-08-26T05:35:40.372Z,17.1
2017-08-26T05:36:47.864Z,17
2017-08-26T05:37:55.639Z,17
2017-08-26T05:39:03.118Z,17.1
2017-08-26T05:40:10.592Z,17
2017-08-26T05:41:18.072Z,17
2017-08-26T05:42:25.548Z,17
2017-08-26T05:43:32.703Z,17.1
2017-08-26T05:44:40.182Z,17.1
2017-08-26T05:45:47.661Z,17.1
2017-08-26T05:46:55.142Z,17.1
2017-08-26T05:48:02.626Z,17.1
2017-08-26T05:49:10.356Z,17
2017-08-26T05:50:17.838Z,17.1
2017-08-26T05:51:25.319Z,17.1
2017-08-26T05:52:32.796Z,17
2017-08-26T05:53:40.275Z,17
2017-08-26T05:54:48.059Z,17
2017-08-26T05:55:55.555Z,17
2017-08-26T05:57:03.039Z,17
2017-08-26T05:58:10.523Z,17.1
2017-08-26T05:59:17.666Z,17
2017-08-26T06:00:25.164Z,17.1
2017-08-26T06:01:32.322Z,17.2
2017-08-26T06:02:39.802Z,17.2
2017-08-26T06:03:47.299Z,17.2
2017-08-26T06:04:54.781Z,17.2
2017-08-26T06:06:02.611Z,17.2
2017-08-26T06:07:10.090Z,17.3
2017-08-26T06:08:17.573Z,17.3
2017-08-26T06:09:25.058Z,17.3
2017-08-26T06:10:32.537Z,17.4
2017-08-26T06:11:40.363Z,17.4
2017-08-26T06:12:47.841Z,17.5
2017-08-26T06:13:55.326Z,17.5
2017-08-26T06:15:02.804Z,17.5
2017-08-26T06:16:10.285Z,17.5
2017-08-26T06:17:18.125Z,17.6
2017-08-26T06:18:25.272Z,17.6
2017-08-26T06:19:32.418Z,17.6
2017-08-26T06:20:39.896Z,17.6
2017-08-26T06:21:47.046Z,17.6
2017-08-26T06:22:54.526Z,17.6
2017-08-26T06:24:02.027Z,17.6
2017-08-26T06:25:09.153Z,17.6
2017-08-26T06:26:16.639Z,17.7
2017-08-26T06:27:24.119Z,17.8
2017-08-26T06:28:31.632Z,17.9
2017-08-26T06:29:39.339Z,17.9
2017-08-26T06:30:46.820Z,17.9
2017-08-26T06:31:54.300Z,18.1
2017-08-26T06:33:01.798Z,18.2
2017-08-26T06:34:09.631Z,18.3
2017-08-26T06:35:17.116Z,18.4
2017-08-26T06:36:24.609Z,18.4
2017-08-26T06:37:32.088Z,18.4
2017-08-26T06:38:39.589Z,18.4
2017-08-26T06:39:47.425Z,18.4
2017-08-26T06:40:54.909Z,18.4
2017-08-26T06:42:02.388Z,18.5
2017-08-26T06:43:10.087Z,18.6
2017-08-26T06:44:17.576Z,18.7
2017-08-26T06:45:25.060Z,18.7
2017-08-26T06:46:31.548Z,18.8
2017-08-26T06:47:39.031Z,18.9
2017-08-26T06:48:46.186Z,18.9
2017-08-26T06:49:54.017Z,18.9
2017-08-26T06:51:01.500Z,18.9
2017-08-26T06:52:08.994Z,18.9
2017-08-26T06:53:16.483Z,18.9
2017-08-26T06:54:23.957Z,18.9
2017-08-26T06:55:31.793Z,19
2017-08-26T06:56:39.278Z,19.1
2017-08-26T06:57:46.764Z,19.1
2017-08-26T06:58:54.243Z,19.1
2017-08-26T07:00:01.724Z,19.1
2017-08-26T07:01:09.556Z,19.2
2017-08-26T07:02:17.039Z,19.4
2017-08-26T07:03:24.519Z,19.5
2017-08-26T07:04:31.998Z,19.6
2017-08-26T07:05:39.148Z,19.8
2017-08-26T07:06:46.989Z,19.9
2017-08-26T07:07:54.466Z,20
2017-08-26T07:09:01.949Z,20.1
2017-08-26T07:10:09.435Z,20.2
2017-08-26T07:11:16.581Z,20.3
2017-08-26T07:12:24.085Z,20.4
2017-08-26T07:13:31.568Z,20.5
2017-08-26T07:14:39.046Z,20.5
2017-08-26T07:15:46.530Z,20.5
2017-08-26T07:16:54.019Z,20.6
2017-08-26T07:18:01.853Z,20.7
2017-08-26T07:19:09.338Z,20.8
2017-08-26T07:20:16.506Z,21
2017-08-26T07:21:23.982Z,21.1
2017-08-26T07:22:31.467Z,21.2
2017-08-26T07:23:38.967Z,21.2
2017-08-26T07:24:46.449Z,21.3
2017-08-26T07:25:53.930Z,21.4
2017-08-26T07:27:01.103Z,21.6
2017-08-26T07:28:08.582Z,21.5
2017-08-26T07:29:16.416Z,21.6
2017-08-26T07:30:23.899Z,21.7
2017-08-26T07:31:31.382Z,21.8
2017-08-26T07:32:38.868Z,22
2017-08-26T07:33:46.354Z,22.1
2017-08-26T07:34:54.189Z,22.1
2017-08-26T07:36:01.682Z,22.3
2017-08-26T07:37:09.163Z,22.4
2017-08-26T07:38:16.646Z,22.4
2017-08-26T07:39:24.142Z,22.5
2017-08-26T07:40:31.976Z,22.6
2017-08-26T07:41:39.465Z,22.5
2017-08-26T07:42:46.945Z,22.5
2017-08-26T07:43:54.429Z,22.2
2017-08-26T07:45:01.915Z,22.3
2017-08-26T07:46:09.698Z,22.4
2017-08-26T07:47:16.853Z,22.6
2017-08-26T07:48:23.999Z,22.6
2017-08-26T07:49:31.486Z,22.5
2017-08-26T07:50:38.970Z,22.5
2017-08-26T07:51:46.806Z,22.6
2017-08-26T07:52:54.283Z,22.8
2017-08-26T07:54:01.765Z,22.9
2017-08-26T07:55:08.918Z,23
2017-08-26T07:56:16.397Z,23.1
2017-08-26T07:57:24.229Z,23.1
2017-08-26T07:58:31.753Z,23.1
2017-08-26T07:59:39.241Z,23.2
2017-08-26T08:00:46.750Z,23.2
2017-08-26T08:01:53.898Z,23
2017-08-26T08:03:01.733Z,23
2017-08-26T08:04:09.218Z,23
2017-08-26T08:05:16.690Z,23
2017-08-26T08:06:24.182Z,23
2017-08-26T08:07:31.672Z,23.1
2017-08-26T08:08:39.495Z,23.2
2017-08-26T08:09:46.978Z,23.3
2017-08-26T08:10:54.134Z,23.4
2017-08-26T08:12:01.296Z,23.6
2017-08-26T08:13:08.783Z,23.6
2017-08-26T08:14:15.933Z,23.5
2017-08-26T08:15:23.415Z,23.4
2017-08-26T08:16:31.201Z,23.3
2017-08-26T08:17:38.680Z,23.5
2017-08-26T08:18:46.166Z,23.8
2017-08-26T08:19:53.647Z,23.8
2017-08-26T08:21:01.140Z,23.9
2017-08-26T08:22:08.935Z,23.9
2017-08-26T08:23:16.414Z,23.7
2017-08-26T08:24:23.906Z,23.6
2017-08-26T08:25:31.390Z,23.7
2017-08-26T08:26:38.876Z,23.5
2017-08-26T08:27:46.665Z,23.2
2017-08-26T08:28:54.150Z,23
2017-08-26T08:30:01.635Z,23.2
2017-08-26T08:31:09.119Z,23.3
2017-08-26T08:32:16.272Z,23.3
2017-08-26T08:33:23.761Z,23.6
2017-08-26T08:34:31.269Z,23.8
2017-08-26T08:35:38.758Z,23.9
2017-08-26T08:36:46.239Z,24.1
2017-08-26T08:37:53.387Z,24.3
2017-08-26T08:39:01.179Z,24.4
2017-08-26T08:40:08.336Z,24.4
2017-08-26T08:41:15.823Z,24.2
2017-08-26T08:42:23.306Z,24.3
2017-08-26T08:43:30.793Z,24.3
2017-08-26T08:44:38.581Z,24.4
2017-08-26T08:45:45.730Z,24.4
2017-08-26T08:46:53.214Z,24.3
2017-08-26T08:48:00.699Z,24.3
2017-08-26T08:49:08.188Z,24.3
2017-08-26T08:50:16.010Z,24.5
2017-08-26T08:51:23.491Z,24.9
2017-08-26T08:52:30.980Z,25
2017-08-26T08:53:38.466Z,25.2
2017-08-26T08:54:45.621Z,25.4
2017-08-26T08:55:53.103Z,25.4
2017-08-26T08:57:00.590Z,25.5
2017-08-26T08:58:07.741Z,25.4
2017-08-26T08:59:15.228Z,25.1
2017-08-26T09:00:23.015Z,25.1
2017-08-26T09:01:30.502Z,25.1
2017-08-26T09:02:37.649Z,24.8
2017-08-26T09:03:45.125Z,24.8
2017-08-26T09:04:52.274Z,25.1
2017-08-26T09:06:00.063Z,25.2
2017-08-26T09:07:07.548Z,25.1
2017-08-26T09:08:15.042Z,25.2
2017-08-26T09:09:22.530Z,25.4
2017-08-26T09:10:30.020Z,25.5
2017-08-26T09:11:37.807Z,25.2
2017-08-26T09:12:45.290Z,25.3
2017-08-26T09:13:52.775Z,25.4
2017-08-26T09:15:00.264Z,25.6
2017-08-26T09:16:07.754Z,25.5
2017-08-26T09:17:15.539Z,25.3
2017-08-26T09:18:23.024Z,25.4
2017-08-26T09:19:30.513Z,25.5
2017-08-26T09:20:37.665Z,25.3
2017-08-26T09:21:45.159Z,25.3
2017-08-26T09:22:52.615Z,25.4
2017-08-26T09:23:59.765Z,25.6
2017-08-26T09:25:07.260Z,25.7
2017-08-26T09:26:14.756Z,25.8
2017-08-26T09:27:22.238Z,26
2017-08-26T09:28:30.026Z,26
2017-08-26T09:29:37.517Z,26.1
2017-08-26T09:30:45.007Z,26.2
2017-08-26T09:31:52.492Z,26.2
2017-08-26T09:32:59.993Z,26.1
2017-08-26T09:34:07.784Z,26.4
2017-08-26T09:35:14.942Z,26.6
2017-08-26T09:36:22.420Z,26.5
2017-08-26T09:37:29.907Z,26.4
2017-08-26T09:38:37.392Z,26.4
2017-08-26T09:39:45.194Z,26.4
2017-08-26T09:40:52.681Z,26.2
2017-08-26T09:42:00.158Z,26.3
2017-08-26T09:43:07.650Z,26.5
2017-08-26T09:44:14.820Z,26.7
2017-08-26T09:45:36.871Z,26.8
2017-08-26T09:46:44.045Z,27.1
2017-08-26T09:47:51.197Z,27
2017-08-26T09:48:58.688Z,26.7
2017-08-26T09:50:06.164Z,26.8
2017-08-26T09:51:13.634Z,26.9
2017-08-26T09:52:21.135Z,26.8
2017-08-26T09:53:28.623Z,26.6
2017-08-26T09:54:36.108Z,26.4
2017-08-26T09:55:43.596Z,26.5
2017-08-26T09:56:51.381Z,26.7
2017-08-26T09:57:58.870Z,26.7
2017-08-26T09:59:06.357Z,26.7
2017-08-26T10:00:13.846Z,26.6
2017-08-26T10:01:21.004Z,26.8
2017-08-26T10:02:28.793Z,26.8
2017-08-26T10:03:36.276Z,26.9
2017-08-26T10:04:43.767Z,27
2017-08-26T10:05:51.257Z,27
2017-08-26T10:06:58.742Z,27
2017-08-26T10:08:06.528Z,27.2
2017-08-26T10:09:14.008Z,27.3
2017-08-26T10:10:21.494Z,27.1
2017-08-26T10:11:28.982Z,27
2017-08-26T10:12:36.485Z,27.2
2017-08-26T10:13:43.943Z,27.4
2017-08-26T10:14:51.435Z,27.5
2017-08-26T10:15:58.928Z,27.8
2017-08-26T10:17:06.418Z,28.3
2017-08-26T10:18:13.908Z,28.5
2017-08-26T10:19:21.362Z,28.7
2017-08-26T10:20:28.858Z,28.5
2017-08-26T10:21:36.359Z,28.6
2017-08-26T10:22:43.845Z,28.8
2017-08-26T10:23:51.337Z,28.6
2017-08-26T10:24:59.120Z,28.6
2017-08-26T10:26:06.609Z,28.5
2017-08-26T10:27:13.761Z,28.6
2017-08-26T10:28:20.922Z,28.9
2017-08-26T10:29:28.415Z,29.2
2017-08-26T10:30:36.449Z,29.5
2017-08-26T10:31:43.931Z,29.6
2017-08-26T10:32:51.077Z,29.5
2017-08-26T10:33:58.568Z,29.4
2017-08-26T10:35:05.725Z,29.2
2017-08-26T10:36:13.509Z,29.2
2017-08-26T10:37:20.991Z,29.2
2017-08-26T10:38:28.484Z,29
2017-08-26T10:39:35.974Z,29
2017-08-26T10:40:43.136Z,28.8
2017-08-26T10:41:50.925Z,28.8
2017-08-26T10:42:58.411Z,28.9
2017-08-26T10:44:05.227Z,29.3
2017-08-26T10:45:12.386Z,29.2
2017-08-26T10:46:19.542Z,29.1
2017-08-26T10:47:27.331Z,28.9
2017-08-26T10:48:34.818Z,28.8
2017-08-26T10:49:41.974Z,28.8
2017-08-26T10:50:49.465Z,28.8
2017-08-26T10:51:56.971Z,29.1
2017-08-26T10:53:04.766Z,29.3
2017-08-26T10:54:12.253Z,29.1
2017-08-26T10:55:19.740Z,29.1
2017-08-26T10:56:27.228Z,29.3
2017-08-26T10:57:34.720Z,29.6
2017-08-26T10:58:42.510Z,30
2017-08-26T10:59:50.004Z,30.2
2017-08-26T11:00:57.491Z,29.9
2017-08-26T11:02:04.974Z,30
2017-08-26T11:03:12.145Z,30
2017-08-26T11:04:19.938Z,29.9
2017-08-26T11:05:27.429Z,29.7
2017-08-26T11:06:34.930Z,29.5
2017-08-26T11:07:42.415Z,29.6
2017-08-26T11:08:49.907Z,29.6
2017-08-26T11:09:57.363Z,29.6
2017-08-26T11:11:04.854Z,29.9
2017-08-26T11:12:12.012Z,30.1
2017-08-26T11:13:19.497Z,30.3
2017-08-26T11:14:26.991Z,30.5
2017-08-26T11:15:34.778Z,30.7
2017-08-26T11:16:42.266Z,30.6
2017-08-26T11:17:49.759Z,30.1
2017-08-26T11:18:57.253Z,29.8
2017-08-26T11:20:04.742Z,29.4
2017-08-26T11:21:12.534Z,29.4
2017-08-26T11:22:20.034Z,29.6
2017-08-26T11:23:27.524Z,29.9
2017-08-26T11:24:34.696Z,29.8
2017-08-26T11:25:42.192Z,29.5
2017-08-26T11:26:49.653Z,29.5
2017-08-26T11:27:57.141Z,29.6
2017-08-26T11:29:04.643Z,29.4
2017-08-26T11:30:12.134Z,29.5
2017-08-26T11:31:19.282Z,29.5
2017-08-26T11:32:27.074Z,29.6
2017-08-26T11:33:34.564Z,29.7
2017-08-26T11:34:42.065Z,29.7
2017-08-26T11:35:49.545Z,29.8
2017-08-26T11:36:56.708Z,29.8
2017-08-26T11:38:04.500Z,30
2017-08-26T11:39:11.322Z,30.2
2017-08-26T11:40:18.810Z,30.4
2017-08-26T11:41:26.297Z,30.5
2017-08-26T11:42:33.461Z,30.3
2017-08-26T11:43:55.834Z,30.3
2017-08-26T11:45:03.322Z,30.1
2017-08-26T11:46:10.809Z,30.1
2017-08-26T11:47:18.303Z,30.4
2017-08-26T11:48:25.797Z,30.6
2017-08-26T11:49:33.593Z,30.8
2017-08-26T11:50:41.115Z,30.9
2017-08-26T11:51:48.604Z,31.1
2017-08-26T11:52:55.756Z,31.2
2017-08-26T11:54:02.907Z,31.5
2017-08-26T11:55:10.693Z,31.3
2017-08-26T11:56:18.185Z,31
2017-08-26T11:57:25.679Z,30.7
2017-08-26T11:58:32.836Z,30.6
2017-08-26T11:59:40.321Z,30.7
2017-08-26T12:00:48.108Z,30.7
2017-08-26T12:01:55.598Z,30.5
2017-08-26T12:03:03.090Z,30.7
2017-08-26T12:04:10.575Z,30.7
2017-08-26T12:05:18.060Z,30.9
2017-08-26T12:06:25.514Z,31.1
2017-08-26T12:07:32.675Z,31.3
2017-08-26T12:08:40.171Z,31.4
2017-08-26T12:09:47.655Z,31.3
2017-08-26T12:10:55.140Z,31.4
2017-08-26T12:12:02.601Z,31.5
2017-08-26T12:13:10.095Z,31.4
2017-08-26T12:14:17.591Z,31.3
2017-08-26T12:15:24.746Z,31.5
2017-08-26T12:16:32.242Z,31.6
2017-08-26T12:17:40.044Z,31.7
2017-08-26T12:18:47.538Z,31.6
2017-08-26T12:19:55.026Z,31.3
2017-08-26T12:21:02.518Z,31.3
2017-08-26T12:22:10.013Z,31.1
2017-08-26T12:23:17.804Z,31.1
2017-08-26T12:24:25.289Z,31
2017-08-26T12:25:32.778Z,30.8
2017-08-26T12:26:40.272Z,30.5
2017-08-26T12:27:47.761Z,30.6
2017-08-26T12:28:55.567Z,30.7
2017-08-26T12:30:03.057Z,30.7
2017-08-26T12:31:10.553Z,30.8
2017-08-26T12:32:18.031Z,30.7
2017-08-26T12:33:25.521Z,30.8
2017-08-26T12:34:32.981Z,31
2017-08-26T12:35:40.483Z,31.1
2017-08-26T12:36:47.638Z,31
2017-08-26T12:37:55.127Z,31.3
2017-08-26T12:39:02.618Z,31.6
2017-08-26T12:40:10.404Z,31.6
2017-08-26T12:41:17.891Z,31.6
2017-08-26T12:42:25.401Z,31.7
2017-08-26T12:43:32.902Z,31.9
2017-08-26T12:44:39.732Z,31.4
2017-08-26T12:45:47.522Z,31.3
2017-08-26T12:46:55.032Z,31.4
2017-08-26T12:48:02.525Z,31.3
2017-08-26T12:49:10.018Z,31.3
2017-08-26T12:50:17.505Z,31.3
2017-08-26T12:51:25.303Z,31.3
2017-08-26T12:52:32.786Z,31.5
2017-08-26T12:53:40.283Z,31.7
2017-08-26T12:54:47.803Z,31.7
2017-08-26T12:55:55.303Z,31.7
2017-08-26T12:57:03.100Z,31.9
2017-08-26T12:58:10.593Z,31.9
2017-08-26T12:59:18.090Z,31.7
2017-08-26T13:00:25.583Z,31.6
2017-08-26T13:01:33.072Z,31.5
2017-08-26T13:02:40.861Z,31.5
2017-08-26T13:03:48.032Z,31.7
2017-08-26T13:04:55.517Z,31.7
2017-08-26T13:06:03.026Z,31.2
2017-08-26T13:07:10.519Z,31.1
2017-08-26T13:08:18.310Z,31.1
2017-08-26T13:09:25.804Z,31.1
2017-08-26T13:10:33.299Z,31.1
2017-08-26T13:11:41.801Z,31.1
2017-08-26T13:12:49.292Z,31.2
2017-08-26T13:13:57.076Z,31
2017-08-26T13:15:04.570Z,31.1
2017-08-26T13:16:12.080Z,31.3
2017-08-26T13:17:19.584Z,31.2
2017-08-26T13:18:27.102Z,31.4
2017-08-26T13:19:34.888Z,31.6
2017-08-26T13:20:42.379Z,31.5
2017-08-26T13:21:49.535Z,31.3
2017-08-26T13:22:57.038Z,31.2
2017-08-26T13:24:04.522Z,31
2017-08-26T13:25:12.342Z,31
2017-08-26T13:26:19.824Z,31
2017-08-26T13:27:27.313Z,31.2
2017-08-26T13:28:34.805Z,31.7
2017-08-26T13:29:42.290Z,32.2
2017-08-26T13:30:50.082Z,32.2
2017-08-26T13:31:57.572Z,32
2017-08-26T13:33:05.073Z,32.1
2017-08-26T13:34:12.573Z,32
2017-08-26T13:35:20.098Z,32.1
2017-08-26T13:36:27.892Z,32.3
2017-08-26T13:37:35.047Z,32.4
2017-08-26T13:38:42.245Z,32.5
2017-08-26T13:39:49.414Z,32.7
2017-08-26T13:40:56.905Z,32.6
2017-08-26T13:42:04.703Z,32.5
2017-08-26T13:43:12.196Z,32.2
2017-08-26T13:44:19.679Z,31.9
2017-08-26T13:45:27.184Z,31.7
2017-08-26T13:46:34.667Z,31.5
2017-08-26T13:47:42.459Z,31.5
2017-08-26T13:48:49.946Z,31.7
2017-08-26T13:49:57.447Z,32
2017-08-26T13:51:04.939Z,31.9
2017-08-26T13:52:12.425Z,31.8
2017-08-26T13:53:19.920Z,31.6
2017-08-26T13:54:27.410Z,31.6
2017-08-26T13:55:34.904Z,31.2
2017-08-26T13:56:42.362Z,30.8
2017-08-26T13:57:49.856Z,30.9
2017-08-26T13:58:57.349Z,31.2
2017-08-26T14:00:04.837Z,31.6
2017-08-26T14:01:12.327Z,31.9
2017-08-26T14:02:20.163Z,31.8
2017-08-26T14:03:27.649Z,31.7
2017-08-26T14:04:34.817Z,31.5
2017-08-26T14:05:42.307Z,31.4
2017-08-26T14:06:49.792Z,31.4
2017-08-26T14:07:57.636Z,31.6
2017-08-26T14:09:05.117Z,32.1
2017-08-26T14:10:12.275Z,32.2
2017-08-26T14:11:19.780Z,32.3
2017-08-26T14:12:27.291Z,32.4
2017-08-26T14:13:34.788Z,32.3
2017-08-26T14:14:42.287Z,32.5
2017-08-26T14:15:49.775Z,32.5
2017-08-26T14:16:57.267Z,32.5
2017-08-26T14:18:04.760Z,32.5
2017-08-26T14:19:12.261Z,32.6
2017-08-26T14:20:19.415Z,32.5
2017-08-26T14:21:26.913Z,32.7
2017-08-26T14:22:34.412Z,32.7
2017-08-26T14:23:41.934Z,32.7
2017-08-26T14:24:49.438Z,32.7
2017-08-26T14:25:56.928Z,32.7
2017-08-26T14:27:04.415Z,32.9
2017-08-26T14:28:11.904Z,32.9
2017-08-26T14:29:19.069Z,33
2017-08-26T14:30:26.564Z,32.9
2017-08-26T14:31:34.299Z,32.8
2017-08-26T14:32:41.784Z,32.9
2017-08-26T14:33:49.282Z,32.8
2017-08-26T14:34:56.773Z,32.8
2017-08-26T14:36:04.291Z,32.8
2017-08-26T14:37:11.450Z,32.7
2017-08-26T14:38:18.938Z,32.6
2017-08-26T14:39:26.423Z,32.5
2017-08-26T14:40:33.930Z,32.5
2017-08-26T14:41:41.435Z,32.3
2017-08-26T14:42:48.928Z,32.1
2017-08-26T14:43:56.092Z,31.8
2017-08-26T14:45:02.917Z,31.6
2017-08-26T14:46:10.403Z,31.7
2017-08-26T14:47:18.200Z,31.8
2017-08-26T14:48:25.696Z,32.1
2017-08-26T14:49:32.854Z,31.9
2017-08-26T14:50:40.343Z,31.9
2017-08-26T14:51:47.837Z,32.1
2017-08-26T14:52:55.323Z,32.1
2017-08-26T14:54:02.816Z,32
2017-08-26T14:55:10.309Z,31.9
2017-08-26T14:56:17.796Z,31.8
2017-08-26T14:57:25.293Z,31.9
2017-08-26T14:58:32.797Z,31.7
2017-08-26T14:59:40.284Z,31.6
2017-08-26T15:00:47.799Z,31.8
2017-08-26T15:01:55.512Z,31.9
2017-08-26T15:03:03.006Z,31.5
2017-08-26T15:04:10.513Z,31.3